createdAt,value
2018-12-05T00:00:05.142Z,0.00
2018-12-05T00:01:05.142Z,0.00
2018-12-05T00:02:05.116Z,0.00
2018-12-05T00:03:05.112Z,0.00
2018-12-05T00:04:05.108Z,0.00
2018-12-05T00:05:05.087Z,0.00
2018-12-05T00:06:05.075Z,0.00
2018-12-05T00:07:05.066Z,0.00
2018-12-05T00:08:05.057Z,0.00
2018-12-05T00:09:05.056Z,0.00
2018-12-05T00:10:05.029Z,0.00
2018-12-05T00:11:05.017Z,0.00
2018-12-05T00:12:05.021Z,0.00
2018-12-05T00:13:04.992Z,0.00
2018-12-05T00:14:04.999Z,0.00
2018-12-05T00:15:04.983Z,0.00
2018-12-05T00:16:04.965Z,0.00
2018-12-05T00:17:04.960Z,0.00
2018-12-05T00:18:04.956Z,0.00
2018-12-05T00:19:04.948Z,0.00
2018-12-05T00:20:04.917Z,0.00
2018-12-05T00:21:04.915Z,0.00
2018-12-05T00:22:04.900Z,0.00
2018-12-05T00:23:04.886Z,0.00
2018-12-05T00:24:04.896Z,0.00
2018-12-05T00:25:04.865Z,0.00
2018-12-05T00:26:04.856Z,0.00
2018-12-05T00:27:04.845Z,0.00
2018-12-05T00:28:04.834Z,0.00
2018-12-05T00:29:04.840Z,0.00
2018-12-05T00:30:04.809Z,0.00
2018-12-05T00:31:04.803Z,0.00
2018-12-05T00:32:04.788Z,0.00
2018-12-05T00:33:04.781Z,0.00
2018-12-05T00:34:04.888Z,0.00
2018-12-05T00:35:04.758Z,0.00
2018-12-05T00:36:04.744Z,0.00
2018-12-05T00:37:04.729Z,0.00
2018-12-05T00:38:04.724Z,0.00
2018-12-05T00:39:04.726Z,0.00
2018-12-05T00:40:04.706Z,0.00
2018-12-05T00:41:04.687Z,0.00
2018-12-05T00:42:04.681Z,0.00
2018-12-05T00:43:04.680Z,0.00
2018-12-05T00:44:04.688Z,0.00
2018-12-05T00:45:04.645Z,0.00
2018-12-05T00:46:04.638Z,0.00
2018-12-05T00:47:04.631Z,0.00
2018-12-05T00:48:04.611Z,0.00
2018-12-05T00:49:04.600Z,0.00
2018-12-05T00:50:04.620Z,0.00
2018-12-05T00:51:04.580Z,0.00
2018-12-05T00:52:04.571Z,0.00
2018-12-05T00:53:04.560Z,0.00
2018-12-05T00:54:04.557Z,0.00
2018-12-05T00:55:04.551Z,0.00
2018-12-05T00:56:04.531Z,0.00
2018-12-05T00:57:04.518Z,0.00
2018-12-05T00:58:04.508Z,0.00
2018-12-05T00:59:04.492Z,0.00
2018-12-05T01:00:04.504Z,0.00
2018-12-05T01:01:04.476Z,0.00
2018-12-05T01:02:04.461Z,0.00
2018-12-05T01:03:04.456Z,0.00
2018-12-05T01:04:04.447Z,0.00
2018-12-05T01:05:04.447Z,0.00
2018-12-05T01:06:04.419Z,0.00
2018-12-05T01:07:04.410Z,0.00
2018-12-05T01:08:04.392Z,0.00
2018-12-05T01:09:04.383Z,0.00
2018-12-05T01:10:04.386Z,0.00
2018-12-05T01:11:04.361Z,0.00
2018-12-05T01:12:04.352Z,0.00
2018-12-05T01:13:04.342Z,0.00
2018-12-05T01:14:04.332Z,0.00
2018-12-05T01:15:04.335Z,0.00
2018-12-05T01:16:04.309Z,0.00
2018-12-05T01:17:04.292Z,0.00
2018-12-05T01:18:04.288Z,0.00
2018-12-05T01:19:04.273Z,0.00
2018-12-05T01:20:04.290Z,0.00
2018-12-05T01:21:04.252Z,0.00
2018-12-05T01:22:04.242Z,0.00
2018-12-05T01:23:04.230Z,0.00
2018-12-05T01:24:04.221Z,0.00
2018-12-05T01:25:04.227Z,0.00
2018-12-05T01:26:04.205Z,0.00
2018-12-05T01:27:04.195Z,0.00
2018-12-05T01:28:04.171Z,0.00
2018-12-05T01:29:04.166Z,0.00
2018-12-05T01:30:04.633Z,0.00
2018-12-05T01:31:04.143Z,0.00
2018-12-05T01:32:04.135Z,0.00
2018-12-05T01:33:04.119Z,0.00
2018-12-05T01:34:04.116Z,0.00
2018-12-05T01:35:04.102Z,0.00
2018-12-05T01:36:04.104Z,0.00
2018-12-05T01:37:04.078Z,0.00
2018-12-05T01:38:04.063Z,0.00
2018-12-05T01:39:04.058Z,0.00
2018-12-05T01:40:04.057Z,0.00
2018-12-05T01:41:04.051Z,0.00
2018-12-05T01:42:04.026Z,0.00
2018-12-05T01:43:04.015Z,0.00
2018-12-05T01:44:03.998Z,0.00
2018-12-05T01:45:03.995Z,0.00
2018-12-05T01:46:03.999Z,0.00
2018-12-05T01:47:03.969Z,0.00
2018-12-05T01:48:03.954Z,0.00
2018-12-05T01:49:03.947Z,0.00
2018-12-05T01:50:03.938Z,0.00
2018-12-05T01:51:03.960Z,0.00
2018-12-05T01:52:03.917Z,0.00
2018-12-05T01:53:03.912Z,0.00
2018-12-05T01:54:03.892Z,0.00
2018-12-05T01:55:03.890Z,0.00
2018-12-05T01:56:03.884Z,0.00
2018-12-05T01:57:03.856Z,0.00
2018-12-05T01:58:03.846Z,0.00
2018-12-05T01:59:03.849Z,0.00
2018-12-05T02:00:03.826Z,0.00
2018-12-05T02:01:03.847Z,0.00
2018-12-05T02:02:03.806Z,0.00
2018-12-05T02:03:03.794Z,0.00
2018-12-05T02:04:03.796Z,0.00
2018-12-05T02:05:03.772Z,0.00
2018-12-05T02:06:03.774Z,0.00
2018-12-05T02:07:03.748Z,0.00
2018-12-05T02:08:03.738Z,0.00
2018-12-05T02:09:03.726Z,0.00
2018-12-05T02:10:03.714Z,0.00
2018-12-05T02:11:03.736Z,0.00
2018-12-05T02:12:03.690Z,0.00
2018-12-05T02:13:03.678Z,0.00
2018-12-05T02:14:03.670Z,0.00
2018-12-05T02:15:03.656Z,0.00
2018-12-05T02:16:03.647Z,0.00
2018-12-05T02:17:03.664Z,0.00
2018-12-05T02:18:03.624Z,0.00
2018-12-05T02:19:03.614Z,0.00
2018-12-05T02:20:03.602Z,0.00
2018-12-05T02:21:03.592Z,0.00
2018-12-05T02:22:03.596Z,0.00
2018-12-05T02:23:03.576Z,0.00
2018-12-05T02:24:03.561Z,0.00
2018-12-05T02:25:03.553Z,0.00
2018-12-05T02:26:03.544Z,0.00
2018-12-05T02:27:04.058Z,0.00
2018-12-05T02:28:03.517Z,0.00
2018-12-05T02:29:03.506Z,0.00
2018-12-05T02:30:03.509Z,0.00
2018-12-05T02:31:03.482Z,0.00
2018-12-05T02:32:03.486Z,0.00
2018-12-05T02:33:03.461Z,0.00
2018-12-05T02:34:03.451Z,0.00
2018-12-05T02:35:03.442Z,0.00
2018-12-05T02:36:03.428Z,0.00
2018-12-05T02:37:03.440Z,0.00
2018-12-05T02:38:03.404Z,0.00
2018-12-05T02:39:03.400Z,0.00
2018-12-05T02:40:03.394Z,0.00
2018-12-05T02:41:03.376Z,0.00
2018-12-05T02:42:03.383Z,0.00
2018-12-05T02:43:03.351Z,0.00
2018-12-05T02:44:03.344Z,0.00
2018-12-05T02:45:03.333Z,0.00
2018-12-05T02:46:03.319Z,0.00
2018-12-05T02:47:03.334Z,0.00
2018-12-05T02:48:03.298Z,0.00
2018-12-05T02:49:03.285Z,0.00
2018-12-05T02:50:03.274Z,0.00
2018-12-05T02:51:03.264Z,0.00
2018-12-05T02:52:03.267Z,0.00
2018-12-05T02:53:03.247Z,0.00
2018-12-05T02:54:03.234Z,0.00
2018-12-05T02:55:03.222Z,0.00
2018-12-05T02:56:03.213Z,0.00
2018-12-05T02:57:03.225Z,0.00
2018-12-05T02:58:03.191Z,0.00
2018-12-05T02:59:03.176Z,0.00
2018-12-05T03:00:03.173Z,0.00
2018-12-05T03:01:03.152Z,0.00
2018-12-05T03:02:03.139Z,0.00
2018-12-05T03:03:03.145Z,0.00
2018-12-05T03:04:03.119Z,0.00
2018-12-05T03:05:03.116Z,0.00
2018-12-05T03:06:03.102Z,0.00
2018-12-05T03:07:03.089Z,0.00
2018-12-05T03:08:03.092Z,0.00
2018-12-05T03:09:03.070Z,0.00
2018-12-05T03:10:03.054Z,0.00
2018-12-05T03:11:03.046Z,0.00
2018-12-05T03:12:03.035Z,0.00
2018-12-05T03:13:03.033Z,0.00
2018-12-05T03:14:03.016Z,0.00
2018-12-05T03:15:03.001Z,0.00
2018-12-05T03:16:02.989Z,0.00
2018-12-05T03:17:02.984Z,0.00
2018-12-05T03:18:02.982Z,0.00
2018-12-05T03:19:02.960Z,0.00
2018-12-05T03:20:02.944Z,0.00
2018-12-05T03:21:02.933Z,0.00
2018-12-05T03:22:02.931Z,0.00
2018-12-05T03:23:02.938Z,0.00
2018-12-05T03:24:02.918Z,0.00
2018-12-05T03:25:02.890Z,0.00
2018-12-05T03:26:02.878Z,0.00
2018-12-05T03:27:02.868Z,0.00
2018-12-05T03:28:02.890Z,0.00
2018-12-05T03:29:02.843Z,0.00
2018-12-05T03:30:02.832Z,0.00
2018-12-05T03:31:02.850Z,0.00
2018-12-05T03:32:02.811Z,0.00
2018-12-05T03:33:02.818Z,0.00
2018-12-05T03:34:02.789Z,0.00
2018-12-05T03:35:02.781Z,0.00
2018-12-05T03:36:02.770Z,0.00
2018-12-05T03:37:02.756Z,0.00
2018-12-05T03:38:02.776Z,0.00
2018-12-05T03:39:02.737Z,0.00
2018-12-05T03:40:02.729Z,0.00
2018-12-05T03:41:02.717Z,0.00
2018-12-05T03:42:02.701Z,0.00
2018-12-05T03:43:02.694Z,0.00
2018-12-05T03:44:02.697Z,0.00
2018-12-05T03:45:02.679Z,0.00
2018-12-05T03:46:02.661Z,0.00
2018-12-05T03:47:02.654Z,0.00
2018-12-05T03:48:02.636Z,0.00
2018-12-05T03:49:02.646Z,0.00
2018-12-05T03:50:02.617Z,0.00
2018-12-05T03:51:02.607Z,0.00
2018-12-05T03:52:02.593Z,0.00
2018-12-05T03:53:02.585Z,0.00
2018-12-05T03:54:02.588Z,0.00
2018-12-05T03:55:02.557Z,0.00
2018-12-05T03:56:02.549Z,0.00
2018-12-05T03:57:02.539Z,0.00
2018-12-05T03:58:02.529Z,0.00
2018-12-05T03:59:02.533Z,0.00
2018-12-05T04:00:02.502Z,0.00
2018-12-05T04:01:02.588Z,0.00
2018-12-05T04:02:02.478Z,0.00
2018-12-05T04:03:02.470Z,0.00
2018-12-05T04:04:02.475Z,0.00
2018-12-05T04:05:02.454Z,0.00
2018-12-05T04:06:02.438Z,0.00
2018-12-05T04:07:02.425Z,0.00
2018-12-05T04:08:02.416Z,0.00
2018-12-05T04:09:02.427Z,0.00
2018-12-05T04:10:02.396Z,0.00
2018-12-05T04:11:02.403Z,0.00
2018-12-05T04:12:02.374Z,0.00
2018-12-05T04:13:02.362Z,0.00
2018-12-05T04:14:02.383Z,0.00
2018-12-05T04:15:02.374Z,0.00
2018-12-05T04:16:02.332Z,0.00
2018-12-05T04:17:02.318Z,0.00
2018-12-05T04:18:02.311Z,0.00
2018-12-05T04:19:02.322Z,0.00
2018-12-05T04:20:02.289Z,0.00
2018-12-05T04:21:02.274Z,0.00
2018-12-05T04:22:02.263Z,0.00
2018-12-05T04:23:02.250Z,0.00
2018-12-05T04:24:02.259Z,0.00
2018-12-05T04:25:02.257Z,0.00
2018-12-05T04:26:02.225Z,0.00
2018-12-05T04:27:02.215Z,0.00
2018-12-05T04:28:02.200Z,0.00
2018-12-05T04:29:02.184Z,0.00
2018-12-05T04:30:02.326Z,0.00
2018-12-05T04:31:02.167Z,0.00
2018-12-05T04:32:02.152Z,0.00
2018-12-05T04:33:02.140Z,0.00
2018-12-05T04:34:02.129Z,0.00
2018-12-05T04:35:02.141Z,0.00
2018-12-05T04:36:02.114Z,0.00
2018-12-05T04:37:02.110Z,0.00
2018-12-05T04:38:02.089Z,0.00
2018-12-05T04:39:02.083Z,0.00
2018-12-05T04:40:02.095Z,0.00
2018-12-05T04:41:02.058Z,0.00
2018-12-05T04:42:02.053Z,0.00
2018-12-05T04:43:02.039Z,0.00
2018-12-05T04:44:02.270Z,0.00
2018-12-05T04:45:02.032Z,0.00
2018-12-05T04:46:01.999Z,0.00
2018-12-05T04:47:01.988Z,0.00
2018-12-05T04:48:01.978Z,0.00
2018-12-05T04:49:01.967Z,0.00
2018-12-05T04:50:01.971Z,0.00
2018-12-05T04:51:01.946Z,0.00
2018-12-05T04:52:01.936Z,0.00
2018-12-05T04:53:01.920Z,0.00
2018-12-05T04:54:01.915Z,0.00
2018-12-05T04:55:01.918Z,0.00
2018-12-05T04:56:01.895Z,0.00
2018-12-05T04:57:01.882Z,0.00
2018-12-05T04:58:01.871Z,0.00
2018-12-05T04:59:01.862Z,0.00
2018-12-05T05:00:01.870Z,0.00
2018-12-05T05:01:01.836Z,0.00
2018-12-05T05:02:01.826Z,0.00
2018-12-05T05:03:01.819Z,0.00
2018-12-05T05:04:01.805Z,0.00
2018-12-05T05:05:01.811Z,0.00
2018-12-05T05:06:01.806Z,0.00
2018-12-05T05:07:01.770Z,0.00
2018-12-05T05:08:01.772Z,0.00
2018-12-05T05:09:01.750Z,0.00
2018-12-05T05:10:01.745Z,0.00
2018-12-05T05:11:01.747Z,0.00
2018-12-05T05:12:01.726Z,0.00
2018-12-05T05:13:01.704Z,0.00
2018-12-05T05:14:01.700Z,0.00
2018-12-05T05:15:01.687Z,0.00
2018-12-05T05:16:01.699Z,0.00
2018-12-05T05:17:01.666Z,0.00
2018-12-05T05:18:01.655Z,0.00
2018-12-05T05:19:01.638Z,0.00
2018-12-05T05:20:01.630Z,0.00
2018-12-05T05:21:01.634Z,0.00
2018-12-05T05:22:01.608Z,0.00
2018-12-05T05:23:01.602Z,0.00
2018-12-05T05:24:01.593Z,0.00
2018-12-05T05:25:01.578Z,0.00
2018-12-05T05:26:01.583Z,0.00
2018-12-05T05:27:01.550Z,0.00
2018-12-05T05:28:01.548Z,0.00
2018-12-05T05:29:01.528Z,0.00
2018-12-05T05:30:01.519Z,0.00
2018-12-05T05:31:01.652Z,0.00
2018-12-05T05:32:01.504Z,0.00
2018-12-05T05:33:01.489Z,0.00
2018-12-05T05:34:01.477Z,0.00
2018-12-05T05:35:01.466Z,0.00
2018-12-05T05:36:01.468Z,0.00
2018-12-05T05:37:01.441Z,0.00
2018-12-05T05:38:01.431Z,0.00
2018-12-05T05:39:01.425Z,0.00
2018-12-05T05:40:01.420Z,0.00
2018-12-05T05:41:01.424Z,0.00
2018-12-05T05:42:01.390Z,0.00
2018-12-05T05:43:01.381Z,0.00
2018-12-05T05:44:01.451Z,0.00
2018-12-05T05:45:01.354Z,0.00
2018-12-05T05:46:01.376Z,0.00
2018-12-05T05:47:01.339Z,0.00
2018-12-05T05:48:01.329Z,0.00
2018-12-05T05:49:01.319Z,0.00
2018-12-05T05:50:01.304Z,0.00
2018-12-05T05:51:01.296Z,0.00
2018-12-05T05:52:01.304Z,0.00
2018-12-05T05:53:01.266Z,0.00
2018-12-05T05:54:01.257Z,0.00
2018-12-05T05:55:01.242Z,0.00
2018-12-05T05:56:01.235Z,0.00
2018-12-05T05:57:01.245Z,0.00
2018-12-05T05:58:01.210Z,0.00
2018-12-05T05:59:01.202Z,0.00
2018-12-05T06:00:01.192Z,0.00
2018-12-05T06:01:01.178Z,0.00
2018-12-05T06:02:01.195Z,0.00
2018-12-05T06:03:01.155Z,0.00
2018-12-05T06:04:01.147Z,0.00
2018-12-05T06:05:01.137Z,0.00
2018-12-05T06:06:01.130Z,0.00
2018-12-05T06:07:01.132Z,0.00
2018-12-05T06:08:01.103Z,0.00
2018-12-05T06:09:01.095Z,0.00
2018-12-05T06:10:01.079Z,0.00
2018-12-05T06:11:01.070Z,0.00
2018-12-05T06:12:01.076Z,0.00
2018-12-05T06:13:01.045Z,0.00
2018-12-05T06:14:01.032Z,0.00
2018-12-05T06:15:01.025Z,0.00
2018-12-05T06:16:01.009Z,0.00
2018-12-05T06:17:01.137Z,0.00
2018-12-05T06:18:00.992Z,0.00
2018-12-05T06:19:00.987Z,0.00
2018-12-05T06:20:00.971Z,0.00
2018-12-05T06:21:00.959Z,0.00
2018-12-05T06:22:00.975Z,4.00
2018-12-05T06:23:00.937Z,0.00
2018-12-05T06:24:00.927Z,0.00
2018-12-05T06:25:00.924Z,4.00
2018-12-05T06:26:00.914Z,0.00
2018-12-05T06:27:00.913Z,4.00
2018-12-05T06:28:00.901Z,4.00
2018-12-05T06:29:00.871Z,4.00
2018-12-05T06:30:00.855Z,4.00
2018-12-05T06:31:00.852Z,4.00
2018-12-05T06:32:00.835Z,8.00
2018-12-05T06:33:00.844Z,8.00
2018-12-05T06:34:00.815Z,8.00
2018-12-05T06:35:00.805Z,12.00
2018-12-05T06:36:00.798Z,12.00
2018-12-05T06:37:00.791Z,16.00
2018-12-05T06:38:00.797Z,16.00
2018-12-05T06:39:00.766Z,20.00
2018-12-05T06:40:00.754Z,24.00
2018-12-05T06:41:00.745Z,28.00
2018-12-05T06:42:00.727Z,32.00
2018-12-05T06:43:00.739Z,36.00
2018-12-05T06:44:00.782Z,40.00
2018-12-05T06:45:00.694Z,44.00
2018-12-05T06:46:00.681Z,48.00
2018-12-05T06:47:00.673Z,56.00
2018-12-05T06:48:00.675Z,64.00
2018-12-05T06:49:00.654Z,68.00
2018-12-05T06:50:00.639Z,80.00
2018-12-05T06:51:00.631Z,88.00
2018-12-05T06:52:00.621Z,96.00
2018-12-05T06:53:00.625Z,104.00
2018-12-05T06:54:00.598Z,116.00
2018-12-05T06:55:00.583Z,124.00
2018-12-05T06:56:00.572Z,136.00
2018-12-05T06:57:00.567Z,148.00
2018-12-05T06:58:00.577Z,160.00
2018-12-05T06:59:00.552Z,172.00
2018-12-05T07:00:00.540Z,188.00
2018-12-05T07:01:00.523Z,200.00
2018-12-05T07:02:00.506Z,216.00
2018-12-05T07:03:00.519Z,232.00
2018-12-05T07:04:00.491Z,248.00
2018-12-05T07:05:00.477Z,260.00
2018-12-05T07:06:00.466Z,280.00
2018-12-05T07:07:00.454Z,296.00
2018-12-05T07:08:00.465Z,312.00
2018-12-05T07:09:00.431Z,332.00
2018-12-05T07:10:00.432Z,352.00
2018-12-05T07:11:00.415Z,368.00
2018-12-05T07:12:00.403Z,388.00
2018-12-05T07:13:00.417Z,408.00
2018-12-05T07:14:00.381Z,428.00
2018-12-05T07:15:00.368Z,448.00
2018-12-05T07:16:00.354Z,468.00
2018-12-05T07:17:00.342Z,488.00
2018-12-05T07:18:00.335Z,508.00
2018-12-05T07:19:00.417Z,528.00
2018-12-05T07:20:00.325Z,552.00
2018-12-05T07:21:00.303Z,572.00
2018-12-05T07:22:00.286Z,596.00
2018-12-05T07:23:00.283Z,616.00
2018-12-05T07:24:00.286Z,640.00
2018-12-05T07:25:00.268Z,660.00
2018-12-05T07:26:00.245Z,680.00
2018-12-05T07:27:00.240Z,704.00
2018-12-05T07:28:00.222Z,724.00
2018-12-05T07:29:00.253Z,748.00
2018-12-05T07:30:00.202Z,768.00
2018-12-05T07:31:00.193Z,788.00
2018-12-05T07:32:00.187Z,828.00
2018-12-05T07:33:00.173Z,836.00
2018-12-05T07:34:00.191Z,856.00
2018-12-05T07:35:00.154Z,880.00
2018-12-05T07:36:00.137Z,904.00
2018-12-05T07:37:00.130Z,932.00
2018-12-05T07:38:00.112Z,960.00
2018-12-05T07:39:00.127Z,972.00
2018-12-05T07:40:00.096Z,996.00
2018-12-05T07:41:00.086Z,1016.00
2018-12-05T07:42:00.073Z,1040.00
2018-12-05T07:43:00.061Z,1060.00
2018-12-05T07:44:00.075Z,1084.00
2018-12-05T07:45:00.037Z,1108.00
2018-12-05T07:46:00.027Z,1132.00
2018-12-05T07:47:00.016Z,1152.00
2018-12-05T07:48:00.006Z,1176.00
2018-12-05T07:49:00.019Z,1200.00
2018-12-05T07:49:59.991Z,1224.00
2018-12-05T07:50:59.971Z,1248.00
2018-12-05T07:51:59.962Z,1268.00
2018-12-05T07:52:59.947Z,1292.00
2018-12-05T07:53:59.969Z,1316.00
2018-12-05T07:54:59.955Z,1336.00
2018-12-05T07:55:59.919Z,1360.00
2018-12-05T07:56:59.906Z,1384.00
2018-12-05T07:57:59.903Z,1408.00
2018-12-05T07:58:59.884Z,1428.00
2018-12-05T07:59:59.892Z,1448.00
2018-12-05T08:00:59.869Z,1472.00
2018-12-05T08:01:59.859Z,1492.00
2018-12-05T08:02:59.850Z,1516.00
2018-12-05T08:03:59.837Z,1532.00
2018-12-05T08:04:59.842Z,1552.00
2018-12-05T08:05:59.814Z,1576.00
2018-12-05T08:06:59.798Z,1596.00
2018-12-05T08:07:59.794Z,1616.00
2018-12-05T08:08:59.785Z,1640.00
2018-12-05T08:09:59.781Z,1660.00
2018-12-05T08:10:59.755Z,1680.00
2018-12-05T08:11:59.743Z,1704.00
2018-12-05T08:12:59.731Z,1720.00
2018-12-05T08:13:59.724Z,1744.00
2018-12-05T08:14:59.824Z,1756.00
2018-12-05T08:15:59.697Z,1772.00
2018-12-05T08:16:59.700Z,1796.00
2018-12-05T08:17:59.684Z,1812.00
2018-12-05T08:18:59.667Z,1832.00
2018-12-05T08:19:59.687Z,1848.00
2018-12-05T08:20:59.647Z,1872.00
2018-12-05T08:21:59.638Z,1892.00
2018-12-05T08:22:59.620Z,1908.00
2018-12-05T08:23:59.616Z,1932.00
2018-12-05T08:24:59.620Z,1948.00
2018-12-05T08:25:59.588Z,1960.00
2018-12-05T08:26:59.577Z,1980.00
2018-12-05T08:27:59.574Z,1992.00
2018-12-05T08:28:59.563Z,2008.00
2018-12-05T08:29:59.577Z,2024.00
2018-12-05T08:30:59.533Z,2040.00
2018-12-05T08:31:59.528Z,2060.00
2018-12-05T08:32:59.512Z,2076.00
2018-12-05T08:33:59.512Z,2100.00
2018-12-05T08:34:59.512Z,2128.00
2018-12-05T08:35:59.474Z,2144.00
2018-12-05T08:36:59.468Z,2156.00
2018-12-05T08:38:00.484Z,2184.00
2018-12-05T08:38:59.447Z,2180.00
2018-12-05T08:39:59.461Z,2196.00
2018-12-05T08:40:59.427Z,2188.00
2018-12-05T08:41:59.423Z,2232.00
2018-12-05T08:42:59.400Z,2264.00
2018-12-05T08:43:59.394Z,2224.00
2018-12-05T08:44:59.399Z,2268.00
2018-12-05T08:45:59.370Z,2236.00
2018-12-05T08:46:59.364Z,2284.00
2018-12-05T08:47:59.345Z,2292.00
2018-12-05T08:48:59.335Z,2308.00
2018-12-05T08:49:59.348Z,2312.00
2018-12-05T08:50:59.322Z,2324.00
2018-12-05T08:51:59.298Z,2332.00
2018-12-05T08:52:59.296Z,2336.00
2018-12-05T08:53:59.282Z,2352.00
2018-12-05T08:54:59.314Z,2388.00
2018-12-05T08:55:59.253Z,2380.00
2018-12-05T08:56:59.250Z,2388.00
2018-12-05T08:57:59.244Z,2400.00
2018-12-05T08:58:59.224Z,2404.00
2018-12-05T08:59:59.233Z,2432.00
2018-12-05T09:00:59.207Z,2500.00
2018-12-05T09:01:59.199Z,2620.00
2018-12-05T09:02:59.184Z,2648.00
2018-12-05T09:03:59.180Z,2544.00
2018-12-05T09:04:59.177Z,2484.00
2018-12-05T09:05:59.162Z,2504.00
2018-12-05T09:06:59.137Z,2524.00
2018-12-05T09:07:59.124Z,2540.00
2018-12-05T09:08:59.112Z,2560.00
2018-12-05T09:09:59.134Z,2576.00
2018-12-05T09:10:59.094Z,2592.00
2018-12-05T09:11:59.086Z,2612.00
2018-12-05T09:12:59.074Z,2652.00
2018-12-05T09:13:59.061Z,2880.00
2018-12-05T09:14:59.076Z,3328.00
2018-12-05T09:15:59.038Z,3832.00
2018-12-05T09:16:59.028Z,4316.00
2018-12-05T09:17:59.016Z,4628.00
2018-12-05T09:18:59.009Z,4844.00
2018-12-05T09:19:59.019Z,5268.00
2018-12-05T09:20:58.992Z,5444.00
2018-12-05T09:21:58.976Z,5468.00
2018-12-05T09:22:58.964Z,5492.00
2018-12-05T09:23:58.953Z,5464.00
2018-12-05T09:24:58.954Z,5604.00
2018-12-05T09:25:58.929Z,5692.00
2018-12-05T09:26:58.926Z,5584.00
2018-12-05T09:27:58.907Z,5376.00
2018-12-05T09:28:58.923Z,5044.00
2018-12-05T09:29:58.912Z,4656.00
2018-12-05T09:30:58.876Z,4276.00
2018-12-05T09:31:58.879Z,4032.00
2018-12-05T09:32:58.864Z,3940.00
2018-12-05T09:33:58.842Z,4144.00
2018-12-05T09:34:58.862Z,4240.00
2018-12-05T09:35:58.846Z,3936.00
2018-12-05T09:36:58.815Z,4140.00
2018-12-05T09:37:58.798Z,4772.00
2018-12-05T09:38:58.784Z,5236.00
2018-12-05T09:39:58.775Z,5320.00
2018-12-05T09:40:58.785Z,5568.00
2018-12-05T09:41:58.764Z,5972.00
2018-12-05T09:42:58.746Z,6168.00
2018-12-05T09:43:58.735Z,6364.00
2018-12-05T09:44:58.722Z,6416.00
2018-12-05T09:45:58.739Z,5860.00
2018-12-05T09:46:58.697Z,5352.00
2018-12-05T09:47:58.693Z,5788.00
2018-12-05T09:48:58.684Z,5728.00
2018-12-05T09:49:58.682Z,6172.00
2018-12-05T09:50:58.672Z,7548.00
2018-12-05T09:51:58.643Z,7840.00
2018-12-05T09:52:58.632Z,8356.00
2018-12-05T09:53:58.700Z,8520.00
2018-12-05T09:54:58.630Z,7508.00
2018-12-05T09:55:58.624Z,7052.00
2018-12-05T09:56:58.585Z,6416.00
2018-12-05T09:57:58.581Z,6132.00
2018-12-05T09:58:58.570Z,6656.00
2018-12-05T09:59:58.557Z,6920.00
2018-12-05T10:00:58.562Z,8060.00
2018-12-05T10:01:58.534Z,9028.00
2018-12-05T10:02:58.524Z,9276.00
2018-12-05T10:03:58.514Z,10532.00
2018-12-05T10:04:58.498Z,11844.00
2018-12-05T10:05:58.504Z,11440.00
2018-12-05T10:06:58.491Z,10076.00
2018-12-05T10:07:58.468Z,9956.00
2018-12-05T10:08:58.461Z,12676.00
2018-12-05T10:09:58.452Z,15072.00
2018-12-05T10:10:58.468Z,12340.00
2018-12-05T10:11:58.424Z,9444.00
2018-12-05T10:12:58.405Z,9820.00
2018-12-05T10:13:58.406Z,11364.00
2018-12-05T10:14:58.394Z,12424.00
2018-12-05T10:15:58.408Z,13512.00
2018-12-05T10:16:58.362Z,15808.00
2018-12-05T10:17:58.429Z,16928.00
2018-12-05T10:18:58.341Z,17664.00
2018-12-05T10:19:58.334Z,19520.00
2018-12-05T10:20:58.323Z,20672.00
2018-12-05T10:21:58.330Z,20832.00
2018-12-05T10:22:58.304Z,21504.00
2018-12-05T10:23:58.294Z,22144.00
2018-12-05T10:24:58.279Z,22432.00
2018-12-05T10:25:58.274Z,23008.00
2018-12-05T10:26:58.270Z,23520.00
2018-12-05T10:27:58.237Z,24160.00
2018-12-05T10:28:58.231Z,25088.00
2018-12-05T10:29:58.215Z,26336.00
2018-12-05T10:30:58.211Z,27168.00
2018-12-05T10:31:58.227Z,26848.00
2018-12-05T10:32:58.194Z,26816.00
2018-12-05T10:33:58.180Z,26944.00
2018-12-05T10:34:58.163Z,27360.00
2018-12-05T10:35:58.155Z,27552.00
2018-12-05T10:36:58.155Z,28128.00
2018-12-05T10:37:58.139Z,29600.00
2018-12-05T10:38:58.117Z,30240.00
2018-12-05T10:39:58.107Z,29920.00
2018-12-05T10:40:58.092Z,30336.00
2018-12-05T10:41:58.103Z,30784.00
2018-12-05T10:42:58.079Z,31136.00
2018-12-05T10:43:58.073Z,30336.00
2018-12-05T10:44:58.055Z,29600.00
2018-12-05T10:45:58.053Z,29568.00
2018-12-05T10:46:58.055Z,29632.00
2018-12-05T10:47:58.017Z,29312.00
2018-12-05T10:48:58.011Z,28992.00
2018-12-05T10:49:57.997Z,28800.00
2018-12-05T10:50:57.989Z,28448.00
2018-12-05T10:51:57.999Z,28576.00
2018-12-05T10:52:57.965Z,29088.00
2018-12-05T10:53:57.953Z,29312.00
2018-12-05T10:54:57.944Z,28928.00
2018-12-05T10:55:57.926Z,28640.00
2018-12-05T10:56:57.935Z,28288.00
2018-12-05T10:57:57.907Z,27840.00
2018-12-05T10:58:57.897Z,27712.00
2018-12-05T10:59:57.895Z,27488.00
2018-12-05T11:00:57.878Z,27584.00
2018-12-05T11:01:57.886Z,27680.00
2018-12-05T11:02:57.860Z,27168.00
2018-12-05T11:03:57.844Z,27104.00
2018-12-05T11:04:57.827Z,27104.00
2018-12-05T11:05:57.825Z,26976.00
2018-12-05T11:06:57.823Z,27072.00
2018-12-05T11:07:57.792Z,27072.00
2018-12-05T11:08:57.787Z,27328.00
2018-12-05T11:09:57.780Z,27968.00
2018-12-05T11:10:57.771Z,27520.00
2018-12-05T11:11:57.782Z,24992.00
2018-12-05T11:12:57.743Z,23488.00
2018-12-05T11:13:57.736Z,25568.00
2018-12-05T11:14:57.722Z,26688.00
2018-12-05T11:15:57.713Z,25824.00
2018-12-05T11:16:57.694Z,17632.00
2018-12-05T11:17:57.708Z,7980.00
2018-12-05T11:18:57.679Z,6056.00
2018-12-05T11:19:57.668Z,5940.00
2018-12-05T11:20:57.654Z,6132.00
2018-12-05T11:21:57.647Z,6384.00
2018-12-05T11:22:57.646Z,6624.00
2018-12-05T11:23:57.638Z,6876.00
2018-12-05T11:24:57.607Z,8752.00
2018-12-05T11:25:57.596Z,15776.00
2018-12-05T11:26:57.582Z,18752.00
2018-12-05T11:27:57.587Z,21184.00
2018-12-05T11:28:57.564Z,15104.00
2018-12-05T11:29:57.553Z,8088.00
2018-12-05T11:30:57.542Z,5872.00
2018-12-05T11:31:57.535Z,5232.00
2018-12-05T11:32:57.536Z,5192.00
2018-12-05T11:33:57.509Z,5256.00
2018-12-05T11:34:57.490Z,5652.00
2018-12-05T11:35:57.486Z,6224.00
2018-12-05T11:36:57.470Z,4936.00
2018-12-05T11:37:57.487Z,3808.00
2018-12-05T11:38:57.447Z,3584.00
2018-12-05T11:39:57.446Z,3540.00
2018-12-05T11:40:57.426Z,3496.00
2018-12-05T11:41:57.416Z,4052.00
2018-12-05T11:42:57.423Z,5800.00
2018-12-05T11:43:57.401Z,7536.00
2018-12-05T11:44:57.385Z,6880.00
2018-12-05T11:45:57.449Z,6064.00
2018-12-05T11:46:57.362Z,5176.00
2018-12-05T11:47:57.370Z,4584.00
2018-12-05T11:48:57.344Z,4188.00
2018-12-05T11:49:57.331Z,3852.00
2018-12-05T11:50:57.317Z,3596.00
2018-12-05T11:51:57.310Z,3468.00
2018-12-05T11:52:57.322Z,3392.00
2018-12-05T11:53:57.290Z,3340.00
2018-12-05T11:54:57.279Z,3308.00
2018-12-05T11:55:57.259Z,3308.00
2018-12-05T11:56:57.250Z,3308.00
2018-12-05T11:57:57.274Z,3288.00
2018-12-05T11:58:57.233Z,3256.00
2018-12-05T11:59:57.216Z,3240.00
2018-12-05T12:00:57.216Z,3224.00
2018-12-05T12:01:57.195Z,3232.00
2018-12-05T12:02:57.210Z,3244.00
2018-12-05T12:03:57.165Z,3204.00
2018-12-05T12:04:57.170Z,3164.00
2018-12-05T12:05:57.153Z,3136.00
2018-12-05T12:06:57.143Z,3104.00
2018-12-05T12:07:57.136Z,3076.00
2018-12-05T12:08:57.149Z,3056.00
2018-12-05T12:09:57.103Z,3028.00
2018-12-05T12:10:57.087Z,2996.00
2018-12-05T12:11:57.088Z,2984.00
2018-12-05T12:12:57.069Z,2956.00
2018-12-05T12:13:57.078Z,2940.00
2018-12-05T12:14:57.049Z,2920.00
2018-12-05T12:15:57.037Z,2904.00
2018-12-05T12:16:57.036Z,2888.00
2018-12-05T12:17:57.014Z,2860.00
2018-12-05T12:18:57.104Z,2844.00
2018-12-05T12:19:56.999Z,2828.00
2018-12-05T12:20:56.987Z,2816.00
2018-12-05T12:21:56.974Z,2812.00
2018-12-05T12:22:56.965Z,2792.00
2018-12-05T12:23:56.975Z,2788.00
2018-12-05T12:24:56.953Z,2764.00
2018-12-05T12:25:56.925Z,2736.00
2018-12-05T12:26:56.917Z,2728.00
2018-12-05T12:27:56.905Z,2736.00
2018-12-05T12:28:56.909Z,2732.00
2018-12-05T12:29:56.885Z,2728.00
2018-12-05T12:30:56.874Z,2724.00
2018-12-05T12:31:56.862Z,2684.00
2018-12-05T12:32:56.848Z,2680.00
2018-12-05T12:33:56.863Z,2436.00
2018-12-05T12:34:56.826Z,2408.00
2018-12-05T12:35:56.819Z,2544.00
2018-12-05T12:36:56.815Z,2572.00
2018-12-05T12:37:56.795Z,2424.00
2018-12-05T12:38:56.801Z,2544.00
2018-12-05T12:39:56.773Z,2576.00
2018-12-05T12:40:56.765Z,2548.00